sensor_id;sensor_type;location;lat;lon;timestamp;P1;durP1;ratioP1;P2;durP2;ratioP2
28437;SDS011;15667;52.376;9.708;2023-06-22T00:02:13;25.42;;;13.13;;
28437;SDS011;15667;52.376;9.708;2023-06-22T00:04:39;22.52;;;13.18;;
28437;SDS011;15667;52.376;9.708;2023-06-22T00:07:05;26.35;;;13.68;;
28437;SDS011;15667;52.376;9.708;2023-06-22T00:09:32;23.88;;;13.43;;
28437;SDS011;15667;52.376;9.708;2023-06-22T00:11:58;26.60;;;13.20;;
28437;SDS011;15667;52.376;9.708;2023-06-22T00:14:24;21.38;;;12.48;;
28437;SDS011;15667;52.376;9.708;2023-06-22T00:16:50;23.92;;;13.50;;
28437;SDS011;15667;52.376;9.708;2023-06-22T00:19:20;21.50;;;13.52;;
28437;SDS011;15667;52.376;9.708;2023-06-22T00:21:46;30.00;;;14.32;;
28437;SDS011;15667;52.376;9.708;2023-06-22T00:24:13;26.02;;;14.70;;
28437;SDS011;15667;52.376;9.708;2023-06-22T00:26:39;27.10;;;15.57;;
28437;SDS011;15667;52.376;9.708;2023-06-22T00:29:05;25.63;;;14.32;;
28437;SDS011;15667;52.376;9.708;2023-06-22T00:31:31;26.08;;;14.10;;
28437;SDS011;15667;52.376;9.708;2023-06-22T00:33:57;26.83;;;14.65;;
28437;SDS011;15667;52.376;9.708;2023-06-22T00:36:23;24.73;;;14.30;;
28437;SDS011;15667;52.376;9.708;2023-06-22T00:38:49;27.23;;;15.60;;
28437;SDS011;15667;52.376;9.708;2023-06-22T00:41:16;23.98;;;14.57;;
28437;SDS011;15667;52.376;9.708;2023-06-22T00:43:42;26.88;;;14.82;;
28437;SDS011;15667;52.376;9.708;2023-06-22T00:46:08;26.75;;;14.30;;
28437;SDS011;15667;52.376;9.708;2023-06-22T00:48:35;25.42;;;14.70;;
28437;SDS011;15667;52.376;9.708;2023-06-22T00:51:02;26.58;;;14.45;;
28437;SDS011;15667;52.376;9.708;2023-06-22T00:53:28;25.33;;;14.73;;
28437;SDS011;15667;52.376;9.708;2023-06-22T00:55:54;23.10;;;14.23;;
28437;SDS011;15667;52.376;9.708;2023-06-22T00:58:21;25.92;;;15.48;;
28437;SDS011;15667;52.376;9.708;2023-06-22T01:00:47;25.30;;;14.38;;
28437;SDS011;15667;52.376;9.708;2023-06-22T01:03:13;22.77;;;14.23;;
28437;SDS011;15667;52.376;9.708;2023-06-22T01:05:41;24.63;;;13.73;;
28437;SDS011;15667;52.376;9.708;2023-06-22T01:16:17;24.08;;;13.13;;
28437;SDS011;15667;52.376;9.708;2023-06-22T01:18:50;19.40;;;12.10;;
28437;SDS011;15667;52.376;9.708;2023-06-22T01:21:20;25.35;;;12.75;;
28437;SDS011;15667;52.376;9.708;2023-06-22T01:23:53;20.27;;;12.32;;
28437;SDS011;15667;52.376;9.708;2023-06-22T01:26:42;24.05;;;12.80;;
28437;SDS011;15667;52.376;9.708;2023-06-22T01:29:21;19.33;;;11.88;;
28437;SDS011;15667;52.376;9.708;2023-06-22T01:31:49;19.35;;;11.30;;
28437;SDS011;15667;52.376;9.708;2023-06-22T01:34:16;20.15;;;11.48;;
28437;SDS011;15667;52.376;9.708;2023-06-22T01:36:42;21.73;;;11.32;;
28437;SDS011;15667;52.376;9.708;2023-06-22T01:39:08;22.20;;;11.68;;
28437;SDS011;15667;52.376;9.708;2023-06-22T01:41:36;20.63;;;11.95;;
28437;SDS011;15667;52.376;9.708;2023-06-22T01:44:07;19.02;;;11.43;;
28437;SDS011;15667;52.376;9.708;2023-06-22T01:46:34;19.48;;;11.70;;
28437;SDS011;15667;52.376;9.708;2023-06-22T01:49:04;20.05;;;10.73;;
28437;SDS011;15667;52.376;9.708;2023-06-22T01:51:31;20.55;;;11.25;;
28437;SDS011;15667;52.376;9.708;2023-06-22T01:53:57;19.38;;;11.57;;
28437;SDS011;15667;52.376;9.708;2023-06-22T01:56:23;19.25;;;11.82;;
28437;SDS011;15667;52.376;9.708;2023-06-22T02:02:23;23.98;;;12.40;;
28437;SDS011;15667;52.376;9.708;2023-06-22T02:05:39;21.38;;;10.82;;
28437;SDS011;15667;52.376;9.708;2023-06-22T02:10:36;19.52;;;10.50;;
28437;SDS011;15667;52.376;9.708;2023-06-22T02:13:23;20.27;;;10.50;;
28437;SDS011;15667;52.376;9.708;2023-06-22T02:16:26;17.58;;;10.75;;
28437;SDS011;15667;52.376;9.708;2023-06-22T02:18:54;16.52;;;9.88;;
28437;SDS011;15667;52.376;9.708;2023-06-22T02:21:27;16.02;;;9.77;;
28437;SDS011;15667;52.376;9.708;2023-06-22T02:23:54;14.20;;;8.95;;
28437;SDS011;15667;52.376;9.708;2023-06-22T02:26:20;18.75;;;10.32;;
28437;SDS011;15667;52.376;9.708;2023-06-22T02:28:46;20.42;;;9.80;;
28437;SDS011;15667;52.376;9.708;2023-06-22T02:31:12;18.98;;;10.07;;
28437;SDS011;15667;52.376;9.708;2023-06-22T02:33:38;21.10;;;10.27;;
28437;SDS011;15667;52.376;9.708;2023-06-22T02:36:04;21.30;;;10.23;;
28437;SDS011;15667;52.376;9.708;2023-06-22T02:38:34;20.30;;;9.88;;
28437;SDS011;15667;52.376;9.708;2023-06-22T02:41:01;19.85;;;10.25;;
28437;SDS011;15667;52.376;9.708;2023-06-22T02:43:27;18.80;;;10.45;;
28437;SDS011;15667;52.376;9.708;2023-06-22T02:51:04;21.65;;;10.43;;
28437;SDS011;15667;52.376;9.708;2023-06-22T02:53:30;18.55;;;10.23;;
28437;SDS011;15667;52.376;9.708;2023-06-22T02:55:56;21.52;;;10.75;;
28437;SDS011;15667;52.376;9.708;2023-06-22T02:58:22;24.48;;;10.85;;
28437;SDS011;15667;52.376;9.708;2023-06-22T03:00:49;17.65;;;10.55;;
28437;SDS011;15667;52.376;9.708;2023-06-22T03:03:18;20.35;;;10.00;;
28437;SDS011;15667;52.376;9.708;2023-06-22T03:05:44;18.70;;;10.55;;
28437;SDS011;15667;52.376;9.708;2023-06-22T03:08:10;17.35;;;10.85;;
28437;SDS011;15667;52.376;9.708;2023-06-22T03:10:36;15.90;;;10.15;;
28437;SDS011;15667;52.376;9.708;2023-06-22T03:13:02;18.05;;;10.55;;
28437;SDS011;15667;52.376;9.708;2023-06-22T03:15:28;19.15;;;10.57;;
28437;SDS011;15667;52.376;9.708;2023-06-22T03:17:56;21.40;;;10.10;;
28437;SDS011;15667;52.376;9.708;2023-06-22T03:20:22;16.65;;;10.27;;
28437;SDS011;15667;52.376;9.708;2023-06-22T03:22:54;22.52;;;10.93;;
28437;SDS011;15667;52.376;9.708;2023-06-22T03:27:50;26.10;;;10.77;;
28437;SDS011;15667;52.376;9.708;2023-06-22T03:30:16;24.65;;;11.30;;
28437;SDS011;15667;52.376;9.708;2023-06-22T03:32:42;17.20;;;10.38;;
28437;SDS011;15667;52.376;9.708;2023-06-22T03:35:08;15.52;;;9.63;;
28437;SDS011;15667;52.376;9.708;2023-06-22T03:37:35;19.48;;;10.35;;
28437;SDS011;15667;52.376;9.708;2023-06-22T03:40:01;18.20;;;10.25;;
28437;SDS011;15667;52.376;9.708;2023-06-22T03:42:30;18.42;;;9.90;;
28437;SDS011;15667;52.376;9.708;2023-06-22T03:44:56;16.00;;;9.77;;
28437;SDS011;15667;52.376;9.708;2023-06-22T03:47:22;19.45;;;10.88;;
28437;SDS011;15667;52.376;9.708;2023-06-22T03:49:48;15.60;;;9.88;;
28437;SDS011;15667;52.376;9.708;2023-06-22T03:52:14;21.20;;;10.57;;
28437;SDS011;15667;52.376;9.708;2023-06-22T03:54:40;19.60;;;10.25;;
28437;SDS011;15667;52.376;9.708;2023-06-22T03:57:06;17.13;;;9.57;;
28437;SDS011;15667;52.376;9.708;2023-06-22T03:59:33;20.58;;;10.63;;
28437;SDS011;15667;52.376;9.708;2023-06-22T04:01:59;19.95;;;11.38;;
28437;SDS011;15667;52.376;9.708;2023-06-22T04:04:25;17.30;;;10.98;;
28437;SDS011;15667;52.376;9.708;2023-06-22T04:06:51;19.30;;;10.73;;
28437;SDS011;15667;52.376;9.708;2023-06-22T04:09:17;14.55;;;9.88;;
28437;SDS011;15667;52.376;9.708;2023-06-22T04:11:43;20.30;;;10.50;;
28437;SDS011;15667;52.376;9.708;2023-06-22T04:14:09;22.95;;;10.68;;
28437;SDS011;15667;52.376;9.708;2023-06-22T04:16:35;18.55;;;10.50;;
28437;SDS011;15667;52.376;9.708;2023-06-22T04:19:01;23.23;;;10.98;;
28437;SDS011;15667;52.376;9.708;2023-06-22T04:21:27;22.92;;;10.50;;
28437;SDS011;15667;52.376;9.708;2023-06-22T04:23:54;24.95;;;9.65;;
28437;SDS011;15667;52.376;9.708;2023-06-22T04:26:20;23.05;;;10.73;;
28437;SDS011;15667;52.376;9.708;2023-06-22T04:28:46;17.95;;;10.25;;
28437;SDS011;15667;52.376;9.708;2023-06-22T04:31:16;25.38;;;10.27;;
28437;SDS011;15667;52.376;9.708;2023-06-22T04:46:41;18.15;;;10.82;;
28437;SDS011;15667;52.376;9.708;2023-06-22T04:49:07;21.95;;;10.95;;
28437;SDS011;15667;52.376;9.708;2023-06-22T04:51:38;18.77;;;9.60;;
28437;SDS011;15667;52.376;9.708;2023-06-22T04:54:09;19.30;;;9.88;;
28437;SDS011;15667;52.376;9.708;2023-06-22T04:56:38;22.25;;;10.02;;
28437;SDS011;15667;52.376;9.708;2023-06-22T05:01:43;17.02;;;9.57;;
28437;SDS011;15667;52.376;9.708;2023-06-22T05:04:21;16.15;;;9.65;;
28437;SDS011;15667;52.376;9.708;2023-06-22T05:07:01;21.02;;;9.85;;
28437;SDS011;15667;52.376;9.708;2023-06-22T05:09:27;16.60;;;9.48;;
28437;SDS011;15667;52.376;9.708;2023-06-22T05:11:53;20.90;;;9.98;;
28437;SDS011;15667;52.376;9.708;2023-06-22T05:14:19;24.20;;;10.48;;
28437;SDS011;15667;52.376;9.708;2023-06-22T05:16:46;18.08;;;10.05;;
28437;SDS011;15667;52.376;9.708;2023-06-22T05:19:12;23.80;;;11.05;;
28437;SDS011;15667;52.376;9.708;2023-06-22T05:21:38;22.83;;;9.55;;
28437;SDS011;15667;52.376;9.708;2023-06-22T05:24:04;24.73;;;9.60;;
28437;SDS011;15667;52.376;9.708;2023-06-22T05:26:31;29.17;;;10.40;;
28437;SDS011;15667;52.376;9.708;2023-06-22T05:28:57;22.52;;;9.95;;
28437;SDS011;15667;52.376;9.708;2023-06-22T05:31:25;22.13;;;9.38;;
28437;SDS011;15667;52.376;9.708;2023-06-22T05:33:52;29.13;;;10.07;;
28437;SDS011;15667;52.376;9.708;2023-06-22T05:36:19;23.35;;;10.32;;
28437;SDS011;15667;52.376;9.708;2023-06-22T05:38:46;23.65;;;9.20;;
28437;SDS011;15667;52.376;9.708;2023-06-22T05:41:13;22.63;;;9.20;;
28437;SDS011;15667;52.376;9.708;2023-06-22T05:43:39;16.00;;;9.20;;
28437;SDS011;15667;52.376;9.708;2023-06-22T05:46:08;29.13;;;10.32;;
28437;SDS011;15667;52.376;9.708;2023-06-22T05:48:34;24.20;;;9.38;;
28437;SDS011;15667;52.376;9.708;2023-06-22T05:51:00;18.67;;;8.93;;
28437;SDS011;15667;52.376;9.708;2023-06-22T05:53:26;23.35;;;8.85;;
28437;SDS011;15667;52.376;9.708;2023-06-22T05:55:52;17.27;;;8.85;;
28437;SDS011;15667;52.376;9.708;2023-06-22T05:58:18;16.27;;;8.02;;
28437;SDS011;15667;52.376;9.708;2023-06-22T06:00:44;16.60;;;7.93;;
28437;SDS011;15667;52.376;9.708;2023-06-22T06:03:11;18.88;;;8.10;;
28437;SDS011;15667;52.376;9.708;2023-06-22T06:05:37;21.90;;;8.32;;
28437;SDS011;15667;52.376;9.708;2023-06-22T06:08:04;25.08;;;8.98;;
28437;SDS011;15667;52.376;9.708;2023-06-22T06:10:31;16.83;;;7.82;;
28437;SDS011;15667;52.376;9.708;2023-06-22T06:12:58;18.92;;;6.93;;
28437;SDS011;15667;52.376;9.708;2023-06-22T06:15:26;14.63;;;7.00;;
28437;SDS011;15667;52.376;9.708;2023-06-22T06:17:53;15.63;;;6.93;;
28437;SDS011;15667;52.376;9.708;2023-06-22T06:20:19;132.02;;;68.82;;
28437;SDS011;15667;52.376;9.708;2023-06-22T06:22:47;21.17;;;10.77;;
28437;SDS011;15667;52.376;9.708;2023-06-22T06:27:43;16.40;;;7.35;;
28437;SDS011;15667;52.376;9.708;2023-06-22T06:30:13;14.55;;;7.90;;
28437;SDS011;15667;52.376;9.708;2023-06-22T06:32:39;17.23;;;6.47;;
28437;SDS011;15667;52.376;9.708;2023-06-22T06:35:06;18.63;;;6.90;;
28437;SDS011;15667;52.376;9.708;2023-06-22T06:37:35;13.90;;;8.35;;
28437;SDS011;15667;52.376;9.708;2023-06-22T06:40:02;17.02;;;7.25;;
28437;SDS011;15667;52.376;9.708;2023-06-22T06:42:30;31.50;;;13.68;;
28437;SDS011;15667;52.376;9.708;2023-06-22T06:44:56;32.85;;;14.45;;
28437;SDS011;15667;52.376;9.708;2023-06-22T06:47:22;14.82;;;7.20;;
28437;SDS011;15667;52.376;9.708;2023-06-22T06:49:48;24.13;;;10.05;;
28437;SDS011;15667;52.376;9.708;2023-06-22T06:52:14;17.75;;;6.78;;
28437;SDS011;15667;52.376;9.708;2023-06-22T06:54:40;20.88;;;7.55;;
28437;SDS011;15667;52.376;9.708;2023-06-22T06:57:07;27.05;;;12.40;;
28437;SDS011;15667;52.376;9.708;2023-06-22T06:59:35;46.45;;;24.67;;
28437;SDS011;15667;52.376;9.708;2023-06-22T07:02:01;42.55;;;18.85;;
28437;SDS011;15667;52.376;9.708;2023-06-22T07:04:27;22.85;;;8.77;;
28437;SDS011;15667;52.376;9.708;2023-06-22T07:06:53;19.23;;;9.50;;
28437;SDS011;15667;52.376;9.708;2023-06-22T07:09:19;15.50;;;6.22;;
28437;SDS011;15667;52.376;9.708;2023-06-22T07:11:45;18.77;;;6.68;;
28437;SDS011;15667;52.376;9.708;2023-06-22T07:14:11;16.38;;;6.10;;
28437;SDS011;15667;52.376;9.708;2023-06-22T07:16:37;18.50;;;6.10;;
28437;SDS011;15667;52.376;9.708;2023-06-22T07:19:03;12.82;;;5.85;;
28437;SDS011;15667;52.376;9.708;2023-06-22T07:21:29;16.13;;;6.82;;
28437;SDS011;15667;52.376;9.708;2023-06-22T07:23:55;9.55;;;5.68;;
28437;SDS011;15667;52.376;9.708;2023-06-22T07:26:21;11.73;;;5.72;;
28437;SDS011;15667;52.376;9.708;2023-06-22T07:28:47;12.48;;;5.80;;
28437;SDS011;15667;52.376;9.708;2023-06-22T07:31:15;15.13;;;6.95;;
28437;SDS011;15667;52.376;9.708;2023-06-22T07:33:41;15.32;;;6.20;;
28437;SDS011;15667;52.376;9.708;2023-06-22T07:36:07;12.38;;;5.97;;
28437;SDS011;15667;52.376;9.708;2023-06-22T07:38:33;12.05;;;5.93;;
28437;SDS011;15667;52.376;9.708;2023-06-22T07:41:00;11.15;;;5.93;;
28437;SDS011;15667;52.376;9.708;2023-06-22T07:43:27;11.20;;;5.43;;
28437;SDS011;15667;52.376;9.708;2023-06-22T07:45:55;12.98;;;6.13;;
28437;SDS011;15667;52.376;9.708;2023-06-22T07:48:21;8.90;;;5.50;;
28437;SDS011;15667;52.376;9.708;2023-06-22T07:54:08;8.38;;;5.18;;
28437;SDS011;15667;52.376;9.708;2023-06-22T07:56:35;9.15;;;5.75;;
28437;SDS011;15667;52.376;9.708;2023-06-22T07:59:01;14.55;;;6.43;;
28437;SDS011;15667;52.376;9.708;2023-06-22T08:01:28;11.82;;;6.25;;
28437;SDS011;15667;52.376;9.708;2023-06-22T08:03:54;12.55;;;6.00;;
28437;SDS011;15667;52.376;9.708;2023-06-22T08:06:20;11.88;;;5.97;;
28437;SDS011;15667;52.376;9.708;2023-06-22T08:08:46;9.45;;;5.97;;
28437;SDS011;15667;52.376;9.708;2023-06-22T08:11:13;10.38;;;5.72;;
28437;SDS011;15667;52.376;9.708;2023-06-22T08:13:39;7.95;;;5.03;;
28437;SDS011;15667;52.376;9.708;2023-06-22T08:16:05;18.95;;;6.70;;
28437;SDS011;15667;52.376;9.708;2023-06-22T08:18:32;11.20;;;5.80;;
28437;SDS011;15667;52.376;9.708;2023-06-22T08:20:58;12.18;;;5.90;;
28437;SDS011;15667;52.376;9.708;2023-06-22T08:23:24;9.27;;;5.72;;
28437;SDS011;15667;52.376;9.708;2023-06-22T08:25:50;9.63;;;5.32;;
28437;SDS011;15667;52.376;9.708;2023-06-22T08:28:16;12.90;;;5.70;;
28437;SDS011;15667;52.376;9.708;2023-06-22T08:30:42;11.25;;;5.40;;
28437;SDS011;15667;52.376;9.708;2023-06-22T08:33:08;8.55;;;5.45;;
28437;SDS011;15667;52.376;9.708;2023-06-22T08:35:33;10.55;;;5.30;;
28437;SDS011;15667;52.376;9.708;2023-06-22T08:37:59;10.00;;;5.28;;
28437;SDS011;15667;52.376;9.708;2023-06-22T08:40:27;13.13;;;6.70;;
28437;SDS011;15667;52.376;9.708;2023-06-22T08:42:54;12.82;;;6.38;;
28437;SDS011;15667;52.376;9.708;2023-06-22T08:45:20;8.75;;;5.90;;
28437;SDS011;15667;52.376;9.708;2023-06-22T08:47:46;10.65;;;6.20;;
28437;SDS011;15667;52.376;9.708;2023-06-22T08:50:12;10.63;;;5.50;;
28437;SDS011;15667;52.376;9.708;2023-06-22T08:56:09;11.07;;;5.80;;
28437;SDS011;15667;52.376;9.708;2023-06-22T08:58:35;14.52;;;6.60;;
28437;SDS011;15667;52.376;9.708;2023-06-22T09:01:01;13.80;;;6.47;;
28437;SDS011;15667;52.376;9.708;2023-06-22T09:03:27;11.90;;;6.70;;
28437;SDS011;15667;52.376;9.708;2023-06-22T09:05:53;11.60;;;6.65;;
28437;SDS011;15667;52.376;9.708;2023-06-22T09:08:22;13.15;;;6.30;;
28437;SDS011;15667;52.376;9.708;2023-06-22T09:10:48;9.88;;;5.90;;
28437;SDS011;15667;52.376;9.708;2023-06-22T09:13:14;14.40;;;6.18;;
28437;SDS011;15667;52.376;9.708;2023-06-22T09:15:40;12.70;;;6.40;;
28437;SDS011;15667;52.376;9.708;2023-06-22T09:18:06;19.02;;;7.30;;
28437;SDS011;15667;52.376;9.708;2023-06-22T09:20:32;11.45;;;6.47;;
28437;SDS011;15667;52.376;9.708;2023-06-22T09:23:01;22.15;;;8.23;;
28437;SDS011;15667;52.376;9.708;2023-06-22T09:25:27;19.58;;;6.38;;
28437;SDS011;15667;52.376;9.708;2023-06-22T09:27:53;10.18;;;6.40;;
28437;SDS011;15667;52.376;9.708;2023-06-22T09:30:19;16.02;;;6.50;;
28437;SDS011;15667;52.376;9.708;2023-06-22T09:32:46;17.35;;;6.90;;
28437;SDS011;15667;52.376;9.708;2023-06-22T09:35:12;11.85;;;6.38;;
28437;SDS011;15667;52.376;9.708;2023-06-22T09:53:12;15.38;;;7.72;;
28437;SDS011;15667;52.376;9.708;2023-06-22T09:55:38;15.60;;;7.95;;
28437;SDS011;15667;52.376;9.708;2023-06-22T09:58:16;17.13;;;7.95;;
28437;SDS011;15667;52.376;9.708;2023-06-22T10:00:42;17.88;;;8.43;;
28437;SDS011;15667;52.376;9.708;2023-06-22T10:05:44;25.95;;;10.88;;
28437;SDS011;15667;52.376;9.708;2023-06-22T10:08:10;16.00;;;9.40;;
28437;SDS011;15667;52.376;9.708;2023-06-22T10:10:36;22.75;;;9.10;;
28437;SDS011;15667;52.376;9.708;2023-06-22T10:13:11;14.15;;;8.63;;
28437;SDS011;15667;52.376;9.708;2023-06-22T10:15:37;17.10;;;8.80;;
28437;SDS011;15667;52.376;9.708;2023-06-22T10:18:03;16.80;;;8.90;;
28437;SDS011;15667;52.376;9.708;2023-06-22T10:20:29;17.17;;;10.15;;
28437;SDS011;15667;52.376;9.708;2023-06-22T10:22:55;23.05;;;10.40;;
28437;SDS011;15667;52.376;9.708;2023-06-22T10:25:22;16.40;;;9.95;;
28437;SDS011;15667;52.376;9.708;2023-06-22T10:27:51;19.73;;;9.68;;
28437;SDS011;15667;52.376;9.708;2023-06-22T10:30:22;18.55;;;9.65;;
28437;SDS011;15667;52.376;9.708;2023-06-22T10:32:48;15.68;;;9.18;;
28437;SDS011;15667;52.376;9.708;2023-06-22T10:35:14;18.38;;;10.15;;
28437;SDS011;15667;52.376;9.708;2023-06-22T10:37:41;18.70;;;10.50;;
28437;SDS011;15667;52.376;9.708;2023-06-22T10:40:08;19.50;;;10.23;;
28437;SDS011;15667;52.376;9.708;2023-06-22T10:42:35;21.55;;;9.48;;
28437;SDS011;15667;52.376;9.708;2023-06-22T10:45:01;14.95;;;8.70;;
28437;SDS011;15667;52.376;9.708;2023-06-22T10:47:27;16.10;;;8.43;;
28437;SDS011;15667;52.376;9.708;2023-06-22T10:49:53;18.45;;;9.77;;
28437;SDS011;15667;52.376;9.708;2023-06-22T10:52:19;17.20;;;9.50;;
28437;SDS011;15667;52.376;9.708;2023-06-22T10:54:45;15.32;;;9.32;;
28437;SDS011;15667;52.376;9.708;2023-06-22T10:57:11;22.55;;;9.63;;
28437;SDS011;15667;52.376;9.708;2023-06-22T10:59:37;17.92;;;9.35;;
28437;SDS011;15667;52.376;9.708;2023-06-22T11:02:03;16.25;;;9.02;;
28437;SDS011;15667;52.376;9.708;2023-06-22T11:04:32;15.30;;;8.50;;
28437;SDS011;15667;52.376;9.708;2023-06-22T11:06:59;15.43;;;9.02;;
28437;SDS011;15667;52.376;9.708;2023-06-22T11:12:39;15.57;;;8.68;;
28437;SDS011;15667;52.376;9.708;2023-06-22T11:15:05;19.52;;;9.48;;
28437;SDS011;15667;52.376;9.708;2023-06-22T11:17:32;14.98;;;9.15;;
28437;SDS011;15667;52.376;9.708;2023-06-22T11:19:58;18.83;;;8.73;;
28437;SDS011;15667;52.376;9.708;2023-06-22T11:22:25;16.55;;;10.48;;
28437;SDS011;15667;52.376;9.708;2023-06-22T11:24:51;19.10;;;10.90;;
28437;SDS011;15667;52.376;9.708;2023-06-22T11:27:20;18.52;;;9.60;;
28437;SDS011;15667;52.376;9.708;2023-06-22T11:29:46;17.80;;;9.52;;
28437;SDS011;15667;52.376;9.708;2023-06-22T11:32:11;19.10;;;10.00;;
28437;SDS011;15667;52.376;9.708;2023-06-22T11:34:38;16.25;;;8.95;;
28437;SDS011;15667;52.376;9.708;2023-06-22T11:37:04;18.15;;;8.93;;
28437;SDS011;15667;52.376;9.708;2023-06-22T11:39:30;15.13;;;9.20;;
28437;SDS011;15667;52.376;9.708;2023-06-22T11:41:56;15.05;;;9.43;;
28437;SDS011;15667;52.376;9.708;2023-06-22T11:44:23;15.02;;;9.35;;
28437;SDS011;15667;52.376;9.708;2023-06-22T11:46:51;19.77;;;10.38;;
28437;SDS011;15667;52.376;9.708;2023-06-22T11:49:17;15.95;;;9.40;;
28437;SDS011;15667;52.376;9.708;2023-06-22T11:51:43;15.93;;;9.25;;
28437;SDS011;15667;52.376;9.708;2023-06-22T11:54:09;20.48;;;8.93;;
28437;SDS011;15667;52.376;9.708;2023-06-22T11:56:35;13.00;;;8.00;;
28437;SDS011;15667;52.376;9.708;2023-06-22T11:59:01;12.57;;;8.10;;
28437;SDS011;15667;52.376;9.708;2023-06-22T12:01:27;14.02;;;7.72;;
28437;SDS011;15667;52.376;9.708;2023-06-22T12:03:53;12.15;;;7.20;;
28437;SDS011;15667;52.376;9.708;2023-06-22T12:06:18;13.63;;;7.65;;
28437;SDS011;15667;52.376;9.708;2023-06-22T12:08:45;12.73;;;6.90;;
28437;SDS011;15667;52.376;9.708;2023-06-22T12:11:11;14.65;;;9.85;;
28437;SDS011;15667;52.376;9.708;2023-06-22T12:16:41;14.30;;;7.32;;
28437;SDS011;15667;52.376;9.708;2023-06-22T12:19:22;13.25;;;8.23;;
28437;SDS011;15667;52.376;9.708;2023-06-22T12:21:48;13.38;;;8.02;;
28437;SDS011;15667;52.376;9.708;2023-06-22T12:24:14;12.10;;;8.55;;
28437;SDS011;15667;52.376;9.708;2023-06-22T12:26:43;16.38;;;8.48;;
28437;SDS011;15667;52.376;9.708;2023-06-22T12:29:11;11.10;;;7.32;;
28437;SDS011;15667;52.376;9.708;2023-06-22T12:31:37;9.30;;;6.35;;
28437;SDS011;15667;52.376;9.708;2023-06-22T12:34:04;10.73;;;7.15;;
28437;SDS011;15667;52.376;9.708;2023-06-22T12:36:33;13.50;;;8.27;;
28437;SDS011;15667;52.376;9.708;2023-06-22T12:39:02;13.18;;;8.32;;
28437;SDS011;15667;52.376;9.708;2023-06-22T12:41:28;16.30;;;8.45;;
28437;SDS011;15667;52.376;9.708;2023-06-22T12:43:54;15.52;;;8.15;;
28437;SDS011;15667;52.376;9.708;2023-06-22T12:46:20;11.73;;;7.03;;
28437;SDS011;15667;52.376;9.708;2023-06-22T12:48:46;12.05;;;7.72;;
28437;SDS011;15667;52.376;9.708;2023-06-22T13:51:14;22.27;;;13.75;;
28437;SDS011;15667;52.376;9.708;2023-06-22T13:53:40;24.55;;;14.65;;
28437;SDS011;15667;52.376;9.708;2023-06-22T13:56:06;27.80;;;16.20;;
28437;SDS011;15667;52.376;9.708;2023-06-22T13:58:32;16.02;;;10.95;;
28437;SDS011;15667;52.376;9.708;2023-06-22T14:00:58;16.60;;;10.82;;
28437;SDS011;15667;52.376;9.708;2023-06-22T14:03:44;18.90;;;11.30;;
28437;SDS011;15667;52.376;9.708;2023-06-22T14:20:18;15.25;;;11.23;;
28437;SDS011;15667;52.376;9.708;2023-06-22T14:58:03;20.02;;;13.25;;
28437;SDS011;15667;52.376;9.708;2023-06-22T15:00:33;20.13;;;12.65;;
28437;SDS011;15667;52.376;9.708;2023-06-22T15:02:59;17.17;;;11.40;;
28437;SDS011;15667;52.376;9.708;2023-06-22T15:05:27;18.17;;;12.25;;
28437;SDS011;15667;52.376;9.708;2023-06-22T15:07:56;20.05;;;12.02;;
28437;SDS011;15667;52.376;9.708;2023-06-22T15:10:22;17.38;;;12.43;;
28437;SDS011;15667;52.376;9.708;2023-06-22T15:12:49;17.08;;;11.82;;
28437;SDS011;15667;52.376;9.708;2023-06-22T15:15:15;20.15;;;12.20;;
28437;SDS011;15667;52.376;9.708;2023-06-22T15:17:41;25.85;;;12.95;;
28437;SDS011;15667;52.376;9.708;2023-06-22T15:20:07;22.95;;;14.43;;
28437;SDS011;15667;52.376;9.708;2023-06-22T15:22:33;34.92;;;15.82;;
28437;SDS011;15667;52.376;9.708;2023-06-22T15:24:59;35.42;;;17.33;;
28437;SDS011;15667;52.376;9.708;2023-06-22T15:27:26;39.63;;;17.23;;
28437;SDS011;15667;52.376;9.708;2023-06-22T15:29:55;38.42;;;17.38;;
28437;SDS011;15667;52.376;9.708;2023-06-22T15:32:21;36.08;;;19.17;;
28437;SDS011;15667;52.376;9.708;2023-06-22T15:34:47;33.65;;;20.70;;
28437;SDS011;15667;52.376;9.708;2023-06-22T15:37:15;41.25;;;21.85;;
28437;SDS011;15667;52.376;9.708;2023-06-22T15:39:44;41.80;;;23.83;;
28437;SDS011;15667;52.376;9.708;2023-06-22T15:42:10;41.65;;;23.20;;
28437;SDS011;15667;52.376;9.708;2023-06-22T15:44:36;38.10;;;23.80;;
28437;SDS011;15667;52.376;9.708;2023-06-22T15:47:02;38.70;;;24.50;;
28437;SDS011;15667;52.376;9.708;2023-06-22T15:49:28;37.90;;;24.67;;
28437;SDS011;15667;52.376;9.708;2023-06-22T15:51:54;41.45;;;24.88;;
28437;SDS011;15667;52.376;9.708;2023-06-22T15:54:20;39.75;;;24.95;;
28437;SDS011;15667;52.376;9.708;2023-06-22T15:56:49;49.80;;;26.27;;
28437;SDS011;15667;52.376;9.708;2023-06-22T15:59:14;44.95;;;25.85;;
28437;SDS011;15667;52.376;9.708;2023-06-22T16:01:40;47.05;;;26.08;;
28437;SDS011;15667;52.376;9.708;2023-06-22T16:04:07;48.47;;;25.83;;
28437;SDS011;15667;52.376;9.708;2023-06-22T16:06:33;40.10;;;23.90;;
28437;SDS011;15667;52.376;9.708;2023-06-22T16:08:59;41.00;;;24.25;;
28437;SDS011;15667;52.376;9.708;2023-06-22T16:11:25;40.00;;;23.55;;
28437;SDS011;15667;52.376;9.708;2023-06-22T16:13:51;40.08;;;24.58;;
28437;SDS011;15667;52.376;9.708;2023-06-22T16:16:17;44.20;;;24.67;;
28437;SDS011;15667;52.376;9.708;2023-06-22T16:18:43;39.33;;;24.52;;
28437;SDS011;15667;52.376;9.708;2023-06-22T16:21:10;38.85;;;23.05;;
28437;SDS011;15667;52.376;9.708;2023-06-22T16:27:32;44.78;;;24.83;;
